sensor_id;sensor_type;location;lat;lon;timestamp;pressure;altitude;pressure_sealevel;temperature
72054;BMP280;59918;51.280;7.950;2022-09-13T00:00:32;97551.91;;;17.07
72054;BMP280;59918;51.280;7.950;2022-09-13T00:02:57;97543.59;;;17.05
72054;BMP280;59918;51.280;7.950;2022-09-13T00:05:23;97543.34;;;17.06
72054;BMP280;59918;51.280;7.950;2022-09-13T00:07:48;97530.41;;;17.11
72054;BMP280;59918;51.280;7.950;2022-09-13T00:10:15;97533.00;;;17.11
72054;BMP280;59918;51.280;7.950;2022-09-13T00:12:41;97527.00;;;17.11
72054;BMP280;59918;51.280;7.950;2022-09-13T00:15:07;97531.94;;;17.12
72054;BMP280;59918;51.280;7.950;2022-09-13T00:17:32;97536.19;;;17.18
72054;BMP280;59918;51.280;7.950;2022-09-13T00:20:00;97531.03;;;17.23
72054;BMP280;59918;51.280;7.950;2022-09-13T00:22:26;97527.91;;;17.26
72054;BMP280;59918;51.280;7.950;2022-09-13T00:24:51;97527.41;;;17.29
72054;BMP280;59918;51.280;7.950;2022-09-13T00:27:17;97522.22;;;17.29
72054;BMP280;59918;51.280;7.950;2022-09-13T00:29:42;97518.56;;;17.30
72054;BMP280;59918;51.280;7.950;2022-09-13T00:32:07;97513.91;;;17.27
72054;BMP280;59918;51.280;7.950;2022-09-13T00:34:32;97502.97;;;17.25
72054;BMP280;59918;51.280;7.950;2022-09-13T00:36:58;97509.47;;;17.27
72054;BMP280;59918;51.280;7.950;2022-09-13T00:39:23;97511.28;;;17.27
72054;BMP280;59918;51.280;7.950;2022-09-13T00:41:48;97515.19;;;17.29
72054;BMP280;59918;51.280;7.950;2022-09-13T00:47:14;97513.97;;;17.42
72054;BMP280;59918;51.280;7.950;2022-09-13T00:49:42;97510.09;;;17.49
72054;BMP280;59918;51.280;7.950;2022-09-13T00:52:13;97499.47;;;17.55
72054;BMP280;59918;51.280;7.950;2022-09-13T00:54:47;97491.13;;;17.53
72054;BMP280;59918;51.280;7.950;2022-09-13T00:57:15;97470.06;;;17.50
72054;BMP280;59918;51.280;7.950;2022-09-13T00:59:44;97466.69;;;17.45
72054;BMP280;59918;51.280;7.950;2022-09-13T01:02:11;97464.34;;;17.43
72054;BMP280;59918;51.280;7.950;2022-09-13T01:04:37;97449.50;;;17.44
72054;BMP280;59918;51.280;7.950;2022-09-13T01:07:06;97455.22;;;17.46
72054;BMP280;59918;51.280;7.950;2022-09-13T01:09:34;97452.13;;;17.49
72054;BMP280;59918;51.280;7.950;2022-09-13T01:14:54;97459.41;;;17.52
72054;BMP280;59918;51.280;7.950;2022-09-13T01:17:21;97460.19;;;17.52
72054;BMP280;59918;51.280;7.950;2022-09-13T01:19:46;97461.50;;;17.54
72054;BMP280;59918;51.280;7.950;2022-09-13T01:25:24;97470.38;;;17.63
72054;BMP280;59918;51.280;7.950;2022-09-13T01:28:22;97470.16;;;17.70
72054;BMP280;59918;51.280;7.950;2022-09-13T01:31:09;97474.31;;;17.71
72054;BMP280;59918;51.280;7.950;2022-09-13T01:39:16;97470.16;;;17.75
72054;BMP280;59918;51.280;7.950;2022-09-13T01:42:00;97474.06;;;17.77
72054;BMP280;59918;51.280;7.950;2022-09-13T01:52:58;97457.69;;;17.72
72054;BMP280;59918;51.280;7.950;2022-09-13T02:00:31;97475.06;;;17.66
72054;BMP280;59918;51.280;7.950;2022-09-13T02:03:09;97463.63;;;17.67
72054;BMP280;59918;51.280;7.950;2022-09-13T02:05:41;97474.56;;;17.64
72054;BMP280;59918;51.280;7.950;2022-09-13T02:08:12;97470.66;;;17.67
72054;BMP280;59918;51.280;7.950;2022-09-13T02:10:43;97469.34;;;17.69
72054;BMP280;59918;51.280;7.950;2022-09-13T02:13:14;97465.19;;;17.73
72054;BMP280;59918;51.280;7.950;2022-09-13T02:15:47;97464.19;;;17.74
72054;BMP280;59918;51.280;7.950;2022-09-13T02:18:19;97470.41;;;17.73
72054;BMP280;59918;51.280;7.950;2022-09-13T02:20:49;97464.66;;;17.71
72054;BMP280;59918;51.280;7.950;2022-09-13T02:23:21;97473.53;;;17.70
72054;BMP280;59918;51.280;7.950;2022-09-13T02:25:51;97463.38;;;17.69
72054;BMP280;59918;51.280;7.950;2022-09-13T02:28:22;97461.28;;;17.71
72054;BMP280;59918;51.280;7.950;2022-09-13T02:30:51;97471.94;;;17.69
72054;BMP280;59918;51.280;7.950;2022-09-13T02:33:28;97469.34;;;17.69
72054;BMP280;59918;51.280;7.950;2022-09-13T02:36:08;97459.47;;;17.66
72054;BMP280;59918;51.280;7.950;2022-09-13T02:38:50;97466.22;;;17.62
72054;BMP280;59918;51.280;7.950;2022-09-13T02:41:24;97453.22;;;17.62
72054;BMP280;59918;51.280;7.950;2022-09-13T02:44:09;97452.16;;;17.63
72054;BMP280;59918;51.280;7.950;2022-09-13T02:46:59;97451.16;;;17.64
72054;BMP280;59918;51.280;7.950;2022-09-13T02:52:49;97447.75;;;17.64
72054;BMP280;59918;51.280;7.950;2022-09-13T02:55:21;97456.59;;;17.63
72054;BMP280;59918;51.280;7.950;2022-09-13T03:00:20;97465.44;;;17.67
72054;BMP280;59918;51.280;7.950;2022-09-13T03:02:47;97461.03;;;17.67
72054;BMP280;59918;51.280;7.950;2022-09-13T03:05:13;97446.72;;;17.65
72054;BMP280;59918;51.280;7.950;2022-09-13T03:07:39;97451.16;;;17.64
72054;BMP280;59918;51.280;7.950;2022-09-13T03:10:10;97448.78;;;17.63
72054;BMP280;59918;51.280;7.950;2022-09-13T03:17:56;97454.25;;;17.56
72054;BMP280;59918;51.280;7.950;2022-09-13T03:23:11;97449.56;;;17.58
72054;BMP280;59918;51.280;7.950;2022-09-13T03:30:37;97448.53;;;17.54
72054;BMP280;59918;51.280;7.950;2022-09-13T03:33:30;97445.66;;;17.56
72054;BMP280;59918;51.280;7.950;2022-09-13T03:36:04;97450.59;;;17.57
72054;BMP280;59918;51.280;7.950;2022-09-13T03:41:31;97447.50;;;17.60
72054;BMP280;59918;51.280;7.950;2022-09-13T03:44:01;97448.03;;;17.62
72054;BMP280;59918;51.280;7.950;2022-09-13T03:49:10;97451.94;;;17.70
72054;BMP280;59918;51.280;7.950;2022-09-13T03:51:37;97446.47;;;17.71
72054;BMP280;59918;51.280;7.950;2022-09-13T03:54:06;97457.94;;;17.75
72054;BMP280;59918;51.280;7.950;2022-09-13T03:56:33;97457.94;;;17.75
72054;BMP280;59918;51.280;7.950;2022-09-13T03:58:58;97457.44;;;17.78
72054;BMP280;59918;51.280;7.950;2022-09-13T04:01:24;97453.25;;;17.77
72054;BMP280;59918;51.280;7.950;2022-09-13T04:03:50;97456.38;;;17.74
72054;BMP280;59918;51.280;7.950;2022-09-13T04:06:15;97456.88;;;17.71
72054;BMP280;59918;51.280;7.950;2022-09-13T04:08:40;97452.72;;;17.70
72054;BMP280;59918;51.280;7.950;2022-09-13T04:11:06;97459.47;;;17.71
72054;BMP280;59918;51.280;7.950;2022-09-13T04:13:31;97453.50;;;17.71
72054;BMP280;59918;51.280;7.950;2022-09-13T04:16:01;97448.81;;;17.73
72054;BMP280;59918;51.280;7.950;2022-09-13T04:18:29;97442.31;;;17.75
72054;BMP280;59918;51.280;7.950;2022-09-13T04:20:56;97435.81;;;17.68
72054;BMP280;59918;51.280;7.950;2022-09-13T04:23:23;97439.13;;;17.49
72054;BMP280;59918;51.280;7.950;2022-09-13T04:25:48;97433.03;;;17.18
72054;BMP280;59918;51.280;7.950;2022-09-13T04:28:15;97438.34;;;16.97
72054;BMP280;59918;51.280;7.950;2022-09-13T04:30:43;97432.56;;;16.80
72054;BMP280;59918;51.280;7.950;2022-09-13T04:33:08;97436.31;;;16.63
72054;BMP280;59918;51.280;7.950;2022-09-13T04:35:33;97434.41;;;16.49
72054;BMP280;59918;51.280;7.950;2022-09-13T04:37:59;97427.09;;;16.41
72054;BMP280;59918;51.280;7.950;2022-09-13T04:40:24;97431.69;;;16.34
72054;BMP280;59918;51.280;7.950;2022-09-13T04:42:49;97431.16;;;16.32
72054;BMP280;59918;51.280;7.950;2022-09-13T04:45:17;97425.19;;;16.32
72054;BMP280;59918;51.280;7.950;2022-09-13T04:47:50;97416.09;;;16.29
72054;BMP280;59918;51.280;7.950;2022-09-13T04:50:15;97437.34;;;16.26
72054;BMP280;59918;51.280;7.950;2022-09-13T04:52:40;97436.56;;;16.26
72054;BMP280;59918;51.280;7.950;2022-09-13T04:55:06;97439.16;;;16.26
72054;BMP280;59918;51.280;7.950;2022-09-13T04:57:33;97438.94;;;16.27
72054;BMP280;59918;51.280;7.950;2022-09-13T04:59:59;97429.03;;;16.24
72054;BMP280;59918;51.280;7.950;2022-09-13T05:02:26;97430.06;;;16.23
72054;BMP280;59918;51.280;7.950;2022-09-13T05:04:54;97419.69;;;16.23
72054;BMP280;59918;51.280;7.950;2022-09-13T05:07:19;97419.69;;;16.23
72054;BMP280;59918;51.280;7.950;2022-09-13T05:09:44;97436.81;;;16.24
72054;BMP280;59918;51.280;7.950;2022-09-13T05:12:09;97449.84;;;16.29
72054;BMP280;59918;51.280;7.950;2022-09-13T05:14:34;97429.06;;;16.29
72054;BMP280;59918;51.280;7.950;2022-09-13T05:17:00;97443.13;;;16.33
72054;BMP280;59918;51.280;7.950;2022-09-13T05:19:25;97438.19;;;16.37
72054;BMP280;59918;51.280;7.950;2022-09-13T05:21:50;97448.56;;;16.37
72054;BMP280;59918;51.280;7.950;2022-09-13T05:24:15;97438.72;;;16.39
72054;BMP280;59918;51.280;7.950;2022-09-13T05:26:41;97437.19;;;16.38
72054;BMP280;59918;51.280;7.950;2022-09-13T05:29:06;97437.19;;;16.38
72054;BMP280;59918;51.280;7.950;2022-09-13T05:31:34;97443.44;;;16.42
72054;BMP280;59918;51.280;7.950;2022-09-13T05:34:01;97431.78;;;16.44
72054;BMP280;59918;51.280;7.950;2022-09-13T05:36:27;97439.31;;;16.45
72054;BMP280;59918;51.280;7.950;2022-09-13T05:38:53;97435.44;;;16.48
72054;BMP280;59918;51.280;7.950;2022-09-13T05:41:18;97441.69;;;16.52
72054;BMP280;59918;51.280;7.950;2022-09-13T05:43:44;97447.94;;;16.56
72054;BMP280;59918;51.280;7.950;2022-09-13T05:46:11;97445.66;;;16.59
72054;BMP280;59918;51.280;7.950;2022-09-13T05:48:40;97437.38;;;16.62
72054;BMP280;59918;51.280;7.950;2022-09-13T05:51:17;97436.63;;;16.67
72054;BMP280;59918;51.280;7.950;2022-09-13T05:53:46;97438.47;;;16.71
72054;BMP280;59918;51.280;7.950;2022-09-13T05:56:14;97440.28;;;16.76
72054;BMP280;59918;51.280;7.950;2022-09-13T05:58:41;97436.44;;;16.78
72054;BMP280;59918;51.280;7.950;2022-09-13T06:01:08;97443.72;;;16.81
72054;BMP280;59918;51.280;7.950;2022-09-13T06:03:33;97443.22;;;16.84
72054;BMP280;59918;51.280;7.950;2022-09-13T06:05:59;97452.59;;;16.90
72054;BMP280;59918;51.280;7.950;2022-09-13T06:08:25;97452.38;;;16.96
72054;BMP280;59918;51.280;7.950;2022-09-13T06:10:59;97447.19;;;17.01
72054;BMP280;59918;51.280;7.950;2022-09-13T06:13:26;97452.44;;;17.06
72054;BMP280;59918;51.280;7.950;2022-09-13T06:15:56;97448.28;;;17.10
72054;BMP280;59918;51.280;7.950;2022-09-13T06:18:22;97454.53;;;17.14
72054;BMP280;59918;51.280;7.950;2022-09-13T06:20:47;97462.91;;;17.16
72054;BMP280;59918;51.280;7.950;2022-09-13T06:23:13;97452.53;;;17.21
72054;BMP280;59918;51.280;7.950;2022-09-13T06:25:42;97455.16;;;17.26
72054;BMP280;59918;51.280;7.950;2022-09-13T06:28:07;97450.75;;;17.31
72054;BMP280;59918;51.280;7.950;2022-09-13T06:30:33;97458.84;;;17.35
72054;BMP280;59918;51.280;7.950;2022-09-13T06:32:58;97456.28;;;17.45
72054;BMP280;59918;51.280;7.950;2022-09-13T06:35:24;97452.91;;;17.54
72054;BMP280;59918;51.280;7.950;2022-09-13T06:37:49;97451.41;;;17.63
72054;BMP280;59918;51.280;7.950;2022-09-13T06:40:17;97456.88;;;17.71
72054;BMP280;59918;51.280;7.950;2022-09-13T06:42:42;97453.00;;;17.79
72054;BMP280;59918;51.280;7.950;2022-09-13T06:45:08;97444.16;;;17.85
72054;BMP280;59918;51.280;7.950;2022-09-13T06:47:35;97443.66;;;17.92
72054;BMP280;59918;51.280;7.950;2022-09-13T06:50:00;97444.97;;;18.00
72054;BMP280;59918;51.280;7.950;2022-09-13T06:52:26;97439.56;;;18.11
72054;BMP280;59918;51.280;7.950;2022-09-13T06:54:51;97439.03;;;18.24
72054;BMP280;59918;51.280;7.950;2022-09-13T06:57:16;97451.81;;;18.35
72054;BMP280;59918;51.280;7.950;2022-09-13T06:59:42;97445.03;;;18.49
72054;BMP280;59918;51.280;7.950;2022-09-13T07:02:09;97444.25;;;18.59
72054;BMP280;59918;51.280;7.950;2022-09-13T07:04:36;97445.56;;;18.66
72054;BMP280;59918;51.280;7.950;2022-09-13T07:07:02;97449.72;;;18.72
72054;BMP280;59918;51.280;7.950;2022-09-13T07:09:27;97456.19;;;18.79
72054;BMP280;59918;51.280;7.950;2022-09-13T07:11:54;97447.59;;;18.84
72054;BMP280;59918;51.280;7.950;2022-09-13T07:14:22;97446.00;;;18.93
72054;BMP280;59918;51.280;7.950;2022-09-13T07:16:48;97452.28;;;19.02
72054;BMP280;59918;51.280;7.950;2022-09-13T07:19:19;97450.16;;;19.08
72054;BMP280;59918;51.280;7.950;2022-09-13T07:21:45;97451.47;;;19.16
72054;BMP280;59918;51.280;7.950;2022-09-13T07:24:11;97447.78;;;19.27
72054;BMP280;59918;51.280;7.950;2022-09-13T07:26:37;97449.28;;;19.38
72054;BMP280;59918;51.280;7.950;2022-09-13T07:29:06;97454.72;;;19.46
72054;BMP280;59918;51.280;7.950;2022-09-13T07:31:34;97463.25;;;19.61
72054;BMP280;59918;51.280;7.950;2022-09-13T07:34:01;97461.09;;;19.78
72054;BMP280;59918;51.280;7.950;2022-09-13T07:36:29;97458.47;;;19.88
72054;BMP280;59918;51.280;7.950;2022-09-13T07:38:54;97450.59;;;19.98
72054;BMP280;59918;51.280;7.950;2022-09-13T07:41:24;97458.59;;;20.11
72054;BMP280;59918;51.280;7.950;2022-09-13T07:43:49;97464.00;;;20.19
72054;BMP280;59918;51.280;7.950;2022-09-13T07:46:17;97462.69;;;20.22
72054;BMP280;59918;51.280;7.950;2022-09-13T07:48:43;97458.22;;;20.27
72054;BMP280;59918;51.280;7.950;2022-09-13T07:51:10;97456.59;;;20.31
72054;BMP280;59918;51.280;7.950;2022-09-13T07:53:37;97464.09;;;20.43
72054;BMP280;59918;51.280;7.950;2022-09-13T07:56:07;97458.22;;;20.55
72054;BMP280;59918;51.280;7.950;2022-09-13T07:58:34;97449.56;;;20.65
72054;BMP280;59918;51.280;7.950;2022-09-13T08:01:04;97457.06;;;20.71
72054;BMP280;59918;51.280;7.950;2022-09-13T08:03:30;97458.38;;;20.74
72054;BMP280;59918;51.280;7.950;2022-09-13T08:05:58;97459.94;;;20.75
72054;BMP280;59918;51.280;7.950;2022-09-13T08:08:23;97455.72;;;20.79
72054;BMP280;59918;51.280;7.950;2022-09-13T08:10:51;97445.75;;;20.81
72054;BMP280;59918;51.280;7.950;2022-09-13T08:13:16;97462.19;;;20.86
72054;BMP280;59918;51.280;7.950;2022-09-13T08:15:42;97449.13;;;20.86
72054;BMP280;59918;51.280;7.950;2022-09-13T08:18:07;97458.03;;;20.85
72054;BMP280;59918;51.280;7.950;2022-09-13T08:20:39;97461.84;;;20.92
72054;BMP280;59918;51.280;7.950;2022-09-13T08:23:06;97459.81;;;21.13
72054;BMP280;59918;51.280;7.950;2022-09-13T08:25:34;97463.38;;;21.22
72054;BMP280;59918;51.280;7.950;2022-09-13T08:28:04;97471.88;;;21.32
72054;BMP280;59918;51.280;7.950;2022-09-13T08:30:29;97474.22;;;21.33
72054;BMP280;59918;51.280;7.950;2022-09-13T08:32:55;97478.41;;;21.34
72054;BMP280;59918;51.280;7.950;2022-09-13T08:35:20;97477.91;;;21.32
72054;BMP280;59918;51.280;7.950;2022-09-13T08:37:45;97471.06;;;21.36
72054;BMP280;59918;51.280;7.950;2022-09-13T08:40:10;97460.78;;;21.45
72054;BMP280;59918;51.280;7.950;2022-09-13T08:42:43;97462.84;;;21.48
72054;BMP280;59918;51.280;7.950;2022-09-13T08:45:10;97458.03;;;21.55
72054;BMP280;59918;51.280;7.950;2022-09-13T08:47:56;97456.66;;;21.62
72054;BMP280;59918;51.280;7.950;2022-09-13T08:50:27;97469.09;;;21.70
72054;BMP280;59918;51.280;7.950;2022-09-13T09:04:14;97445.31;;;22.89
72054;BMP280;59918;51.280;7.950;2022-09-13T09:06:46;97443.44;;;22.90
72054;BMP280;59918;51.280;7.950;2022-09-13T09:09:17;97447.75;;;22.99
72054;BMP280;59918;51.280;7.950;2022-09-13T09:11:50;97453.31;;;23.38
72054;BMP280;59918;51.280;7.950;2022-09-13T09:14:24;97446.06;;;23.83
72054;BMP280;59918;51.280;7.950;2022-09-13T09:16:54;97439.53;;;24.29
72054;BMP280;59918;51.280;7.950;2022-09-13T09:19:27;97446.28;;;24.65
72054;BMP280;59918;51.280;7.950;2022-09-13T09:21:53;97445.84;;;24.93
72054;BMP280;59918;51.280;7.950;2022-09-13T09:24:22;97436.94;;;25.11
72054;BMP280;59918;51.280;7.950;2022-09-13T09:26:48;97438.44;;;25.50
72054;BMP280;59918;51.280;7.950;2022-09-13T09:39:38;97437.13;;;26.70
72054;BMP280;59918;51.280;7.950;2022-09-13T09:42:11;97442.56;;;26.65
72054;BMP280;59918;51.280;7.950;2022-09-13T09:44:39;97435.28;;;26.62
72054;BMP280;59918;51.280;7.950;2022-09-13T09:47:15;97433.44;;;26.63
72054;BMP280;59918;51.280;7.950;2022-09-13T09:52:11;97426.47;;;27.04
72054;BMP280;59918;51.280;7.950;2022-09-13T09:54:38;97421.06;;;27.66
72054;BMP280;59918;51.280;7.950;2022-09-13T09:57:04;97416.28;;;28.08
72054;BMP280;59918;51.280;7.950;2022-09-13T09:59:31;97422.63;;;28.48
72054;BMP280;59918;51.280;7.950;2022-09-13T10:01:58;97423.06;;;28.50
72054;BMP280;59918;51.280;7.950;2022-09-13T10:04:24;97415.25;;;28.85
72054;BMP280;59918;51.280;7.950;2022-09-13T10:06:50;97403.69;;;29.84
72054;BMP280;59918;51.280;7.950;2022-09-13T10:09:31;97401.13;;;30.27
72054;BMP280;59918;51.280;7.950;2022-09-13T10:11:58;97404.25;;;29.78
72054;BMP280;59918;51.280;7.950;2022-09-13T10:14:40;97405.50;;;30.08
72054;BMP280;59918;51.280;7.950;2022-09-13T10:17:16;97407.00;;;30.48
72054;BMP280;59918;51.280;7.950;2022-09-13T10:22:21;97396.31;;;31.02
72054;BMP280;59918;51.280;7.950;2022-09-13T10:24:46;97396.13;;;31.10
72054;BMP280;59918;51.280;7.950;2022-09-13T10:27:39;97392.19;;;31.04
72054;BMP280;59918;51.280;7.950;2022-09-13T10:30:05;97395.25;;;31.06
72054;BMP280;59918;51.280;7.950;2022-09-13T10:32:32;97394.31;;;31.45
72054;BMP280;59918;51.280;7.950;2022-09-13T10:35:06;97387.97;;;31.34
72054;BMP280;59918;51.280;7.950;2022-09-13T10:37:33;97398.94;;;30.87
72054;BMP280;59918;51.280;7.950;2022-09-13T10:40:06;97386.09;;;31.34
72054;BMP280;59918;51.280;7.950;2022-09-13T10:42:32;97383.78;;;31.67
72054;BMP280;59918;51.280;7.950;2022-09-13T10:47:49;97377.19;;;32.14
72054;BMP280;59918;51.280;7.950;2022-09-13T10:50:29;97376.88;;;31.81
72054;BMP280;59918;51.280;7.950;2022-09-13T10:52:56;97370.44;;;32.57
72054;BMP280;59918;51.280;7.950;2022-09-13T10:57:52;97384.41;;;32.13
72054;BMP280;59918;51.280;7.950;2022-09-13T11:08:40;97373.59;;;31.35
72054;BMP280;59918;51.280;7.950;2022-09-13T11:16:29;97388.38;;;30.75
72054;BMP280;59918;51.280;7.950;2022-09-13T11:22:21;97379.34;;;31.37
72054;BMP280;59918;51.280;7.950;2022-09-13T11:25:16;97378.59;;;31.89
72054;BMP280;59918;51.280;7.950;2022-09-13T11:30:30;97352.47;;;33.98
72054;BMP280;59918;51.280;7.950;2022-09-13T11:57:41;97308.44;;;40.26
72054;BMP280;59918;51.280;7.950;2022-09-13T12:05:35;97295.16;;;40.64
72054;BMP280;59918;51.280;7.950;2022-09-13T12:08:15;97289.69;;;40.71
72054;BMP280;59918;51.280;7.950;2022-09-13T12:10:57;97284.47;;;42.06
72054;BMP280;59918;51.280;7.950;2022-09-13T12:13:30;97284.06;;;41.88
72054;BMP280;59918;51.280;7.950;2022-09-13T12:16:01;97281.69;;;40.64
72054;BMP280;59918;51.280;7.950;2022-09-13T12:18:31;97277.59;;;40.83
72054;BMP280;59918;51.280;7.950;2022-09-13T12:21:12;97275.69;;;41.02
72054;BMP280;59918;51.280;7.950;2022-09-13T12:23:54;97269.00;;;40.39
72054;BMP280;59918;51.280;7.950;2022-09-13T12:26:52;97270.84;;;41.75
72054;BMP280;59918;51.280;7.950;2022-09-13T12:32:02;97271.19;;;41.76
72054;BMP280;59918;51.280;7.950;2022-09-13T12:57:19;97240.13;;;44.44
72054;BMP280;59918;51.280;7.950;2022-09-13T13:00:10;97238.69;;;44.77
72054;BMP280;59918;51.280;7.950;2022-09-13T13:02:39;97223.56;;;44.05
72054;BMP280;59918;51.280;7.950;2022-09-13T13:08:29;97233.28;;;43.38
72054;BMP280;59918;51.280;7.950;2022-09-13T13:14:22;97213.63;;;43.50
72054;BMP280;59918;51.280;7.950;2022-09-13T13:18:57;97219.22;;;43.83
72054;BMP280;59918;51.280;7.950;2022-09-13T13:29:19;97209.59;;;44.07
72054;BMP280;59918;51.280;7.950;2022-09-13T13:32:04;97212.78;;;44.97
72054;BMP280;59918;51.280;7.950;2022-09-13T13:37:04;97211.28;;;45.81
72054;BMP280;59918;51.280;7.950;2022-09-13T13:39:47;97207.75;;;45.42
72054;BMP280;59918;51.280;7.950;2022-09-13T13:42:24;97215.97;;;45.59
72054;BMP280;59918;51.280;7.950;2022-09-13T13:49:49;97199.06;;;45.77
72054;BMP280;59918;51.280;7.950;2022-09-13T14:08:25;97198.50;;;46.38
72054;BMP280;59918;51.280;7.950;2022-09-13T14:11:12;97200.53;;;46.56
72054;BMP280;59918;51.280;7.950;2022-09-13T14:24:38;97187.31;;;47.70
72054;BMP280;59918;51.280;7.950;2022-09-13T14:27:04;97178.47;;;47.92
72054;BMP280;59918;51.280;7.950;2022-09-13T14:29:30;97184.25;;;47.85
72054;BMP280;59918;51.280;7.950;2022-09-13T14:32:06;97182.03;;;48.39
72054;BMP280;59918;51.280;7.950;2022-09-13T14:34:34;97179.28;;;49.23
72054;BMP280;59918;51.280;7.950;2022-09-13T14:37:03;97181.91;;;49.46
72054;BMP280;59918;51.280;7.950;2022-09-13T14:39:29;97187.94;;;48.61
72054;BMP280;59918;51.280;7.950;2022-09-13T14:42:11;97181.06;;;48.89
72054;BMP280;59918;51.280;7.950;2022-09-13T14:44:42;97176.16;;;49.59
72054;BMP280;59918;51.280;7.950;2022-09-13T14:47:23;97172.69;;;49.58
72054;BMP280;59918;51.280;7.950;2022-09-13T14:50:04;97180.41;;;49.74
72054;BMP280;59918;51.280;7.950;2022-09-13T14:52:37;97176.81;;;49.39
72054;BMP280;59918;51.280;7.950;2022-09-13T14:55:15;97187.00;;;48.41
72054;BMP280;59918;51.280;7.950;2022-09-13T14:57:47;97190.28;;;47.13
72054;BMP280;59918;51.280;7.950;2022-09-13T15:02:39;97197.44;;;43.22
72054;BMP280;59918;51.280;7.950;2022-09-13T15:05:12;97199.09;;;41.93
72054;BMP280;59918;51.280;7.950;2022-09-13T15:07:39;97204.75;;;40.63
72054;BMP280;59918;51.280;7.950;2022-09-13T15:12:33;97202.94;;;38.76
72054;BMP280;59918;51.280;7.950;2022-09-13T15:20:23;97204.00;;;37.95
72054;BMP280;59918;51.280;7.950;2022-09-13T15:22:49;97196.22;;;38.11
72054;BMP280;59918;51.280;7.950;2022-09-13T15:25:28;97207.94;;;38.31
72054;BMP280;59918;51.280;7.950;2022-09-13T15:27:57;97206.00;;;38.38
72054;BMP280;59918;51.280;7.950;2022-09-13T15:30:26;97198.22;;;38.90
72054;BMP280;59918;51.280;7.950;2022-09-13T15:35:45;97199.50;;;41.37
72054;BMP280;59918;51.280;7.950;2022-09-13T15:38:18;97197.03;;;42.32
72054;BMP280;59918;51.280;7.950;2022-09-13T15:40:51;97191.19;;;42.17
72054;BMP280;59918;51.280;7.950;2022-09-13T15:43:20;97191.53;;;39.42
72054;BMP280;59918;51.280;7.950;2022-09-13T15:45:46;97209.53;;;37.61
72054;BMP280;59918;51.280;7.950;2022-09-13T15:48:22;97208.22;;;36.84
72054;BMP280;59918;51.280;7.950;2022-09-13T15:51:09;97201.72;;;36.26
72054;BMP280;59918;51.280;7.950;2022-09-13T15:53:36;97211.06;;;35.47
72054;BMP280;59918;51.280;7.950;2022-09-13T15:56:02;97211.22;;;34.51
72054;BMP280;59918;51.280;7.950;2022-09-13T15:58:28;97217.91;;;33.59
72054;BMP280;59918;51.280;7.950;2022-09-13T16:00:54;97216.25;;;32.68
72054;BMP280;59918;51.280;7.950;2022-09-13T16:03:19;97222.16;;;31.91
72054;BMP280;59918;51.280;7.950;2022-09-13T16:05:44;97217.22;;;31.33
72054;BMP280;59918;51.280;7.950;2022-09-13T16:08:10;97226.00;;;30.85
72054;BMP280;59918;51.280;7.950;2022-09-13T16:10:35;97229.19;;;30.44
72054;BMP280;59918;51.280;7.950;2022-09-13T16:13:05;97226.75;;;30.09
72054;BMP280;59918;51.280;7.950;2022-09-13T16:15:31;97226.06;;;29.69
72054;BMP280;59918;51.280;7.950;2022-09-13T16:17:56;97227.25;;;29.44
72054;BMP280;59918;51.280;7.950;2022-09-13T16:20:21;97230.34;;;29.19
72054;BMP280;59918;51.280;7.950;2022-09-13T16:22:47;97232.66;;;28.97
72054;BMP280;59918;51.280;7.950;2022-09-13T16:25:13;97230.38;;;28.72
72054;BMP280;59918;51.280;7.950;2022-09-13T16:27:42;97243.56;;;28.48
72054;BMP280;59918;51.280;7.950;2022-09-13T16:30:10;97243.78;;;28.20
72054;BMP280;59918;51.280;7.950;2022-09-13T16:32:35;97234.34;;;27.98
72054;BMP280;59918;51.280;7.950;2022-09-13T16:35:01;97243.84;;;27.79
72054;BMP280;59918;51.280;7.950;2022-09-13T16:37:26;97237.81;;;27.58
72054;BMP280;59918;51.280;7.950;2022-09-13T16:39:55;97240.31;;;27.43
72054;BMP280;59918;51.280;7.950;2022-09-13T16:42:20;97240.22;;;27.31
72054;BMP280;59918;51.280;7.950;2022-09-13T16:44:45;97245.63;;;27.15
72054;BMP280;59918;51.280;7.950;2022-09-13T16:47:11;97249.09;;;27.07
72054;BMP280;59918;51.280;7.950;2022-09-13T16:49:36;97246.69;;;26.93
72054;BMP280;59918;51.280;7.950;2022-09-13T16:52:01;97252.78;;;26.85
72054;BMP280;59918;51.280;7.950;2022-09-13T16:54:27;97250.78;;;26.74
72054;BMP280;59918;51.280;7.950;2022-09-13T16:56:52;97247.44;;;26.65
72054;BMP280;59918;51.280;7.950;2022-09-13T16:59:18;97244.72;;;26.53
72054;BMP280;59918;51.280;7.950;2022-09-13T17:01:43;97251.28;;;26.39
72054;BMP280;59918;51.280;7.950;2022-09-13T17:04:08;97254.13;;;26.26
72054;BMP280;59918;51.280;7.950;2022-09-13T17:06:36;97264.34;;;26.19
72054;BMP280;59918;51.280;7.950;2022-09-13T17:09:06;97276.78;;;26.10
72054;BMP280;59918;51.280;7.950;2022-09-13T17:11:34;97277.13;;;26.00
72054;BMP280;59918;51.280;7.950;2022-09-13T17:14:01;97283.31;;;25.87
72054;BMP280;59918;51.280;7.950;2022-09-13T17:16:45;97273.72;;;25.74
72054;BMP280;59918;51.280;7.950;2022-09-13T17:19:14;97282.72;;;25.65
72054;BMP280;59918;51.280;7.950;2022-09-13T17:21:41;97263.78;;;25.55
72054;BMP280;59918;51.280;7.950;2022-09-13T17:24:06;97274.63;;;25.45
72054;BMP280;59918;51.280;7.950;2022-09-13T17:26:31;97287.34;;;25.34
72054;BMP280;59918;51.280;7.950;2022-09-13T17:28:57;97282.22;;;25.21
72054;BMP280;59918;51.280;7.950;2022-09-13T17:31:22;97286.06;;;25.15
72054;BMP280;59918;51.280;7.950;2022-09-13T17:33:48;97284.03;;;25.04
72054;BMP280;59918;51.280;7.950;2022-09-13T17:36:13;97279.84;;;24.94
72054;BMP280;59918;51.280;7.950;2022-09-13T17:38:39;97284.44;;;24.81
72054;BMP280;59918;51.280;7.950;2022-09-13T17:41:13;97281.00;;;24.72
72054;BMP280;59918;51.280;7.950;2022-09-13T17:43:39;97284.19;;;24.60
72054;BMP280;59918;51.280;7.950;2022-09-13T17:46:06;97289.91;;;24.54
72054;BMP280;59918;51.280;7.950;2022-09-13T17:48:32;97284.91;;;24.44
72054;BMP280;59918;51.280;7.950;2022-09-13T17:51:03;97288.28;;;24.36
72054;BMP280;59918;51.280;7.950;2022-09-13T17:53:29;97283.56;;;24.25
72054;BMP280;59918;51.280;7.950;2022-09-13T17:55:54;97284.56;;;24.16
72054;BMP280;59918;51.280;7.950;2022-09-13T17:58:19;97292.72;;;24.06
72054;BMP280;59918;51.280;7.950;2022-09-13T18:00:44;97297.44;;;23.95
72054;BMP280;59918;51.280;7.950;2022-09-13T18:03:10;97292.28;;;23.90